createdAt,value
2018-01-08T00:00:07.642Z,5.09
2018-01-08T00:02:34.064Z,4.99
2018-01-08T00:05:00.428Z,5.18
2018-01-08T00:07:26.835Z,5.10
2018-01-08T00:09:53.233Z,4.97
2018-01-08T00:12:19.652Z,4.88
2018-01-08T00:14:46.102Z,4.91
2018-01-08T00:17:12.495Z,5.15
2018-01-08T00:19:38.860Z,5.19
2018-01-08T00:22:05.303Z,5.20
2018-01-08T00:24:31.760Z,5.07
2018-01-08T00:26:58.199Z,4.67
2018-01-08T00:29:24.583Z,4.81
2018-01-08T00:31:51.032Z,4.72
2018-01-08T00:34:17.383Z,4.89
2018-01-08T00:36:43.884Z,5.03
2018-01-08T00:39:10.303Z,5.05
2018-01-08T00:41:36.678Z,5.05
2018-01-08T00:44:03.127Z,4.90
2018-01-08T00:46:29.587Z,4.97
2018-01-08T00:48:56.006Z,4.87
2018-01-08T00:51:22.495Z,4.94
2018-01-08T00:53:48.920Z,4.86
2018-01-08T00:56:15.263Z,4.85
2018-01-08T00:58:41.744Z,4.92
2018-01-08T01:01:08.259Z,4.88
2018-01-08T01:03:34.643Z,4.83
2018-01-08T01:06:01.132Z,4.78
2018-01-08T01:08:27.507Z,4.75
2018-01-08T01:10:53.966Z,4.75
2018-01-08T01:13:20.504Z,4.70
2018-01-08T01:15:46.884Z,4.76
2018-01-08T01:18:13.276Z,4.70
2018-01-08T01:20:39.674Z,4.67
2018-01-08T01:23:06.083Z,4.70
2018-01-08T01:25:32.488Z,4.64
2018-01-08T01:27:58.947Z,4.64
2018-01-08T01:30:25.359Z,4.55
2018-01-08T01:32:51.769Z,4.65
2018-01-08T01:35:18.228Z,4.65
2018-01-08T01:37:44.683Z,4.72
2018-01-08T01:40:11.036Z,4.69
2018-01-08T01:42:37.527Z,4.65
2018-01-08T01:45:03.955Z,4.42
2018-01-08T01:47:30.467Z,4.66
2018-01-08T01:49:56.883Z,4.63
2018-01-08T01:52:23.329Z,4.63
2018-01-08T01:54:49.794Z,4.62
2018-01-08T01:57:16.300Z,4.47
2018-01-08T01:59:42.636Z,4.46
2018-01-08T02:02:09.099Z,4.49
2018-01-08T02:04:35.516Z,4.59
2018-01-08T02:07:01.870Z,4.71
2018-01-08T02:09:28.316Z,4.50
2018-01-08T02:11:54.795Z,4.65
2018-01-08T02:14:21.428Z,4.54
2018-01-08T02:16:47.819Z,4.59
2018-01-08T02:19:14.235Z,4.73
2018-01-08T02:21:40.667Z,4.82
2018-01-08T02:24:07.019Z,4.70
2018-01-08T02:26:33.399Z,4.53
2018-01-08T02:28:59.779Z,4.77
2018-01-08T02:31:26.181Z,4.69
2018-01-08T02:33:52.596Z,4.67
2018-01-08T02:36:19.159Z,4.44
2018-01-08T02:38:45.589Z,4.63
2018-01-08T02:41:12.091Z,4.72
2018-01-08T02:43:38.429Z,4.78
2018-01-08T02:46:04.908Z,4.64
2018-01-08T02:48:31.331Z,4.62
2018-01-08T02:50:57.715Z,4.60
2018-01-08T02:53:24.133Z,4.63
2018-01-08T02:55:50.532Z,4.69
2018-01-08T02:58:16.977Z,4.63
2018-01-08T03:00:43.463Z,4.73
2018-01-08T03:03:09.844Z,4.73
2018-01-08T03:05:36.271Z,4.70
2018-01-08T03:08:02.772Z,4.67
2018-01-08T03:10:29.171Z,4.59
2018-01-08T03:12:55.551Z,4.53
2018-01-08T03:15:21.935Z,4.55
2018-01-08T03:17:48.408Z,4.49
2018-01-08T03:20:14.888Z,4.56
2018-01-08T03:22:41.332Z,4.50
2018-01-08T03:25:07.759Z,4.53
2018-01-08T03:27:34.135Z,4.36
2018-01-08T03:30:00.535Z,4.30
2018-01-08T03:32:26.980Z,4.45
2018-01-08T03:34:53.339Z,4.47
2018-01-08T03:37:19.712Z,4.32
2018-01-08T03:39:46.160Z,4.40
2018-01-08T03:42:12.548Z,4.45
2018-01-08T03:44:38.935Z,4.66
2018-01-08T03:47:05.527Z,4.67
2018-01-08T03:49:31.871Z,4.49
2018-01-08T03:51:58.255Z,4.34
2018-01-08T03:54:24.685Z,4.27
2018-01-08T03:56:51.201Z,4.40
2018-01-08T03:59:17.563Z,4.34
2018-01-08T04:01:43.995Z,4.47
2018-01-08T04:04:10.356Z,4.58
2018-01-08T04:06:36.698Z,4.52
2018-01-08T04:09:03.251Z,4.39
2018-01-08T04:11:29.643Z,4.30
2018-01-08T04:13:56.063Z,4.14
2018-01-08T04:16:22.436Z,4.15
2018-01-08T04:18:48.823Z,4.07
2018-01-08T04:21:15.197Z,4.34
2018-01-08T04:23:41.658Z,4.19
2018-01-08T04:26:08.067Z,4.17
2018-01-08T04:28:34.426Z,4.13
2018-01-08T04:31:00.875Z,4.21
2018-01-08T04:33:27.308Z,4.22
2018-01-08T04:35:53.680Z,4.30
2018-01-08T04:38:20.132Z,4.25
2018-01-08T04:40:46.512Z,4.21
2018-01-08T04:43:12.931Z,4.14
2018-01-08T04:45:39.350Z,4.16
2018-01-08T04:48:05.724Z,4.17
2018-01-08T04:50:32.095Z,4.21
2018-01-08T04:52:58.517Z,4.30
2018-01-08T04:55:24.888Z,4.26
2018-01-08T04:57:51.323Z,4.41
2018-01-08T05:00:17.726Z,4.46
2018-01-08T05:02:44.180Z,4.36
2018-01-08T05:05:10.563Z,4.32
2018-01-08T05:07:36.980Z,4.36
2018-01-08T05:10:03.427Z,4.19
2018-01-08T05:12:29.788Z,4.20
2018-01-08T05:14:56.267Z,4.22
2018-01-08T05:17:22.691Z,4.25
2018-01-08T05:19:49.039Z,4.22
2018-01-08T05:22:15.436Z,4.30
2018-01-08T05:24:41.832Z,4.38
2018-01-08T05:27:08.307Z,4.35
2018-01-08T05:29:34.750Z,4.33
2018-01-08T05:32:01.115Z,4.41
2018-01-08T05:34:27.548Z,4.24
2018-01-08T05:36:53.975Z,4.34
2018-01-08T05:39:20.497Z,4.40
2018-01-08T05:41:46.840Z,4.49
2018-01-08T05:44:13.316Z,4.64
2018-01-08T05:46:39.780Z,4.68
2018-01-08T05:49:06.166Z,4.80
2018-01-08T05:51:32.568Z,4.72
2018-01-08T05:53:59.004Z,4.77
2018-01-08T05:56:25.433Z,4.47
2018-01-08T05:58:51.924Z,4.57
2018-01-08T06:01:18.336Z,4.63
2018-01-08T06:03:44.771Z,4.71
2018-01-08T06:06:11.275Z,4.67
2018-01-08T06:08:37.672Z,4.61
2018-01-08T06:11:04.182Z,4.54
2018-01-08T06:13:30.564Z,4.62
2018-01-08T06:15:56.920Z,4.74
2018-01-08T06:18:23.311Z,4.85
2018-01-08T06:20:49.746Z,4.81
2018-01-08T06:23:16.328Z,4.85
2018-01-08T06:25:42.752Z,4.83
2018-01-08T06:28:09.191Z,4.75
2018-01-08T06:30:35.628Z,4.79
2018-01-08T06:33:02.008Z,4.92
2018-01-08T06:35:28.448Z,5.00
2018-01-08T06:37:54.867Z,4.83
2018-01-08T06:40:21.300Z,4.84
2018-01-08T06:42:47.842Z,4.82
2018-01-08T06:45:14.300Z,4.77
2018-01-08T06:47:40.755Z,4.43
2018-01-08T06:50:07.424Z,4.59
2018-01-08T06:52:33.948Z,4.82
2018-01-08T06:55:00.341Z,4.87
2018-01-08T06:57:26.748Z,4.81
2018-01-08T06:59:53.469Z,4.79
2018-01-08T07:02:19.935Z,4.75
2018-01-08T07:04:46.304Z,4.75
2018-01-08T07:07:12.660Z,4.85
2018-01-08T07:09:39.037Z,4.81
2018-01-08T07:12:05.452Z,4.98
2018-01-08T07:14:31.827Z,5.07
2018-01-08T07:16:58.285Z,5.20
2018-01-08T07:19:24.720Z,5.18
2018-01-08T07:21:51.131Z,5.21
2018-01-08T07:24:17.977Z,5.19
2018-01-08T07:26:44.623Z,5.18
2018-01-08T07:29:10.999Z,5.36
2018-01-08T07:31:37.425Z,5.42
2018-01-08T07:34:03.967Z,5.42
2018-01-08T07:36:30.397Z,5.49
2018-01-08T07:38:56.859Z,5.56
2018-01-08T07:41:23.936Z,5.56
2018-01-08T07:43:50.347Z,5.62
2018-01-08T07:46:16.759Z,5.67
2018-01-08T07:48:43.179Z,5.67
2018-01-08T07:51:09.576Z,5.73
2018-01-08T07:53:36.316Z,5.73
2018-01-08T07:56:02.736Z,5.80
2018-01-08T07:58:29.140Z,5.91
2018-01-08T08:00:55.570Z,5.95
2018-01-08T08:03:22.260Z,6.08
2018-01-08T08:05:48.702Z,6.21
2018-01-08T08:08:15.079Z,6.29
2018-01-08T08:10:41.488Z,6.32
2018-01-08T08:13:08.025Z,6.40
2018-01-08T08:15:34.585Z,6.48
2018-01-08T08:18:01.789Z,6.57
2018-01-08T08:20:28.200Z,6.57
2018-01-08T08:22:54.655Z,6.62
2018-01-08T08:25:21.268Z,6.68
2018-01-08T08:27:47.810Z,6.76
2018-01-08T08:30:14.625Z,6.79
2018-01-08T08:32:41.457Z,6.85
2018-01-08T08:35:08.177Z,6.86
2018-01-08T08:37:34.636Z,6.91
2018-01-08T08:40:01.061Z,6.99
2018-01-08T08:42:27.471Z,7.04
2018-01-08T08:44:54.000Z,7.08
2018-01-08T08:47:20.419Z,7.11
2018-01-08T08:49:46.786Z,7.11
2018-01-08T08:52:13.271Z,7.18
2018-01-08T08:54:39.833Z,7.24
2018-01-08T08:57:06.280Z,7.22
2018-01-08T08:59:32.752Z,7.27
2018-01-08T09:01:59.180Z,7.29
2018-01-08T09:04:25.694Z,7.31
2018-01-08T09:06:52.189Z,7.38
2018-01-08T09:09:18.627Z,7.39
2018-01-08T09:11:45.044Z,7.43
2018-01-08T09:14:11.488Z,7.49
2018-01-08T09:16:38.081Z,7.61
2018-01-08T09:19:04.486Z,7.74
2018-01-08T09:21:30.954Z,7.85
2018-01-08T09:23:57.562Z,7.91
2018-01-08T09:26:23.971Z,7.96
2018-01-08T09:28:50.379Z,8.02
2018-01-08T09:31:16.896Z,8.03
2018-01-08T09:33:43.346Z,8.03
2018-01-08T09:36:09.696Z,8.11
2018-01-08T09:38:36.135Z,8.16
2018-01-08T09:41:02.548Z,8.20
2018-01-08T09:43:28.960Z,8.25
2018-01-08T09:45:55.356Z,8.26
2018-01-08T09:48:21.850Z,8.27
2018-01-08T09:50:48.361Z,8.28
2018-01-08T09:53:14.808Z,8.27
2018-01-08T09:55:41.176Z,8.37
2018-01-08T09:58:07.639Z,8.31
2018-01-08T10:00:34.279Z,8.38
2018-01-08T10:03:12.923Z,8.38
2018-01-08T10:05:57.764Z,8.28
2018-01-08T10:08:42.600Z,8.32
2018-01-08T10:11:27.225Z,8.43
2018-01-08T10:14:12.145Z,8.38
2018-01-08T10:16:56.973Z,8.29
2018-01-08T10:19:42.843Z,8.29
2018-01-08T10:22:09.780Z,8.44
2018-01-08T10:24:36.208Z,8.51
2018-01-08T10:27:02.739Z,8.57
2018-01-08T10:29:29.284Z,8.53
2018-01-08T10:31:55.800Z,8.50
2018-01-08T10:34:22.260Z,8.57
2018-01-08T10:36:48.720Z,8.62
2018-01-08T10:39:15.174Z,8.56
2018-01-08T10:41:47.597Z,8.52
2018-01-08T10:44:20.079Z,8.68
2018-01-08T10:46:52.639Z,8.68
2018-01-08T10:49:25.012Z,8.73
2018-01-08T10:51:51.460Z,8.80
2018-01-08T10:54:17.942Z,8.89
2018-01-08T10:56:44.429Z,8.93
2018-01-08T10:59:10.915Z,8.98
2018-01-08T11:01:43.316Z,9.04
2018-01-08T11:04:09.834Z,8.99
2018-01-08T11:06:36.310Z,9.03
2018-01-08T11:09:02.791Z,9.07
2018-01-08T11:11:29.300Z,9.12
2018-01-08T11:13:55.768Z,9.14
2018-01-08T11:16:22.250Z,9.19
2018-01-08T11:18:48.772Z,9.24
2018-01-08T11:21:15.215Z,9.31
2018-01-08T11:23:41.697Z,9.32
2018-01-08T11:26:08.179Z,9.46
2018-01-08T11:28:34.691Z,9.47
2018-01-08T11:31:01.155Z,9.49
2018-01-08T11:33:27.619Z,9.49
2018-01-08T11:35:54.108Z,9.44
2018-01-08T11:38:20.580Z,9.50
2018-01-08T11:40:47.072Z,9.60
2018-01-08T11:43:13.560Z,9.56
2018-01-08T11:45:40.067Z,9.60
2018-01-08T11:48:06.604Z,9.66
2018-01-08T11:50:33.157Z,9.67
2018-01-08T11:52:59.610Z,9.62
2018-01-08T11:55:26.172Z,9.68
2018-01-08T11:57:52.695Z,9.56
2018-01-08T12:00:19.188Z,9.63
2018-01-08T12:02:45.807Z,9.61
2018-01-08T12:05:12.268Z,9.73
2018-01-08T12:07:38.763Z,9.65
2018-01-08T12:10:05.312Z,9.61
2018-01-08T12:12:31.830Z,9.60
2018-01-08T12:14:58.416Z,9.54
2018-01-08T12:17:24.972Z,9.58
2018-01-08T12:19:51.436Z,9.54
2018-01-08T12:22:17.889Z,9.48
2018-01-08T12:24:44.404Z,9.54
2018-01-08T12:27:10.960Z,9.56
2018-01-08T12:29:37.443Z,9.57
2018-01-08T12:32:03.939Z,9.63
2018-01-08T12:34:30.352Z,9.72
2018-01-08T12:36:56.759Z,9.73
2018-01-08T12:39:23.263Z,9.64
2018-01-08T12:41:49.712Z,9.65
2018-01-08T12:44:16.194Z,9.65
2018-01-08T12:46:42.685Z,9.73
2018-01-08T12:49:09.132Z,9.64
2018-01-08T12:51:35.563Z,9.67
2018-01-08T12:54:02.116Z,9.76
2018-01-08T12:56:28.588Z,9.73
2018-01-08T12:58:54.984Z,9.67
2018-01-08T13:01:21.512Z,9.73
2018-01-08T13:03:48.027Z,9.78
2018-01-08T13:06:14.620Z,9.85
2018-01-08T13:08:41.116Z,9.93
2018-01-08T13:11:07.629Z,9.93
2018-01-08T13:13:34.032Z,9.93
2018-01-08T13:16:00.448Z,9.97
2018-01-08T13:18:26.912Z,9.97
2018-01-08T13:20:53.302Z,9.95
2018-01-08T13:23:19.729Z,10.00
2018-01-08T13:25:46.292Z,10.01
2018-01-08T13:28:12.749Z,10.01
2018-01-08T13:30:39.260Z,10.04
2018-01-08T13:33:05.700Z,10.04
2018-01-08T13:35:32.166Z,9.99
2018-01-08T13:37:58.785Z,9.96
2018-01-08T13:40:25.288Z,9.99
2018-01-08T13:42:51.751Z,9.95
2018-01-08T13:45:18.291Z,9.95
2018-01-08T13:47:44.963Z,9.96
2018-01-08T13:50:11.513Z,9.95
2018-01-08T13:52:38.166Z,9.89
2018-01-08T13:55:04.641Z,9.94
2018-01-08T13:57:31.095Z,9.92
2018-01-08T13:59:57.644Z,9.93
2018-01-08T14:02:24.140Z,9.91
2018-01-08T14:04:50.657Z,9.93
2018-01-08T14:07:17.252Z,9.94
2018-01-08T14:09:43.872Z,9.93
2018-01-08T14:12:10.381Z,9.92
2018-01-08T14:14:36.911Z,9.91
2018-01-08T14:17:03.385Z,9.88
2018-01-08T14:19:30.014Z,9.86
2018-01-08T14:21:56.554Z,9.76
2018-01-08T14:24:22.964Z,9.73
2018-01-08T14:26:49.821Z,9.76
2018-01-08T14:29:16.388Z,9.74
2018-01-08T14:31:42.775Z,9.73
2018-01-08T14:34:09.236Z,9.70
2018-01-08T14:36:35.712Z,9.65
2018-01-08T14:39:02.376Z,9.66
2018-01-08T14:41:28.755Z,9.68
2018-01-08T14:43:55.320Z,9.66
2018-01-08T14:46:21.845Z,9.66
2018-01-08T14:48:48.317Z,9.62
2018-01-08T14:51:14.831Z,9.59
2018-01-08T14:53:41.232Z,9.59
2018-01-08T14:56:07.619Z,9.59
2018-01-08T14:58:34.060Z,9.58
2018-01-08T15:01:00.588Z,9.53
2018-01-08T15:03:27.042Z,9.52
2018-01-08T15:05:53.527Z,9.53
2018-01-08T15:08:19.960Z,9.50
2018-01-08T15:10:46.479Z,9.48
2018-01-08T15:13:12.979Z,9.44
2018-01-08T15:15:39.421Z,9.42
2018-01-08T15:18:05.900Z,9.38
2018-01-08T15:20:32.412Z,9.35
2018-01-08T15:22:58.961Z,9.32
2018-01-08T15:25:25.392Z,9.31
2018-01-08T15:27:51.896Z,9.29
2018-01-08T15:30:18.368Z,9.27
2018-01-08T15:32:44.803Z,9.25
2018-01-08T15:35:11.256Z,9.18
2018-01-08T15:37:37.688Z,9.18
2018-01-08T15:40:04.120Z,9.15
2018-01-08T15:42:30.531Z,9.11
2018-01-08T15:44:56.941Z,9.10
2018-01-08T15:47:23.295Z,9.11
2018-01-08T15:49:49.723Z,9.10
2018-01-08T15:52:16.221Z,9.00
2018-01-08T15:54:42.728Z,9.02
2018-01-08T15:57:09.156Z,9.05
2018-01-08T15:59:35.902Z,9.02
2018-01-08T16:02:02.309Z,9.01
2018-01-08T16:04:28.732Z,8.97
2018-01-08T16:06:55.158Z,8.95
2018-01-08T16:09:21.579Z,8.93
2018-01-08T16:11:48.053Z,8.92
2018-01-08T16:14:14.432Z,8.91
2018-01-08T16:16:40.859Z,8.88
2018-01-08T16:19:07.293Z,8.87
2018-01-08T16:21:33.696Z,8.86
2018-01-08T16:24:00.114Z,8.84
2018-01-08T16:26:27.033Z,8.80
2018-01-08T16:28:53.576Z,8.78
2018-01-08T16:31:20.009Z,8.74
2018-01-08T16:33:46.467Z,8.71
2018-01-08T16:36:12.887Z,8.69
2018-01-08T16:38:39.279Z,8.65
2018-01-08T16:41:05.779Z,8.62
2018-01-08T16:43:32.229Z,8.57
2018-01-08T16:45:58.673Z,8.51
2018-01-08T16:48:25.144Z,8.50
2018-01-08T16:50:51.509Z,8.47
2018-01-08T16:53:17.848Z,8.42
2018-01-08T16:55:45.126Z,8.33
2018-01-08T16:58:11.579Z,8.28
2018-01-08T17:00:37.997Z,8.28
2018-01-08T17:03:04.476Z,8.21
2018-01-08T17:05:31.005Z,8.16
2018-01-08T17:07:57.340Z,8.17
2018-01-08T17:10:23.800Z,8.15
2018-01-08T17:12:50.209Z,8.11
2018-01-08T17:15:16.728Z,8.14
2018-01-08T17:17:43.222Z,8.10
2018-01-08T17:20:09.661Z,7.92
2018-01-08T17:22:36.056Z,7.93
2018-01-08T17:25:02.465Z,7.94
2018-01-08T17:27:28.863Z,7.92
2018-01-08T17:29:55.256Z,7.80
2018-01-08T17:32:21.732Z,7.81
2018-01-08T17:34:48.147Z,7.76
2018-01-08T17:37:14.556Z,7.83
2018-01-08T17:39:40.994Z,7.71
2018-01-08T17:42:07.392Z,7.60
2018-01-08T17:44:33.789Z,7.40
2018-01-08T17:47:00.400Z,7.34
2018-01-08T17:49:26.776Z,7.10
2018-01-08T17:51:53.139Z,7.12
2018-01-08T17:54:19.580Z,7.08
2018-01-08T17:56:45.939Z,7.08
2018-01-08T17:59:12.296Z,7.10
2018-01-08T18:01:38.748Z,7.10
2018-01-08T18:04:05.257Z,7.03
2018-01-08T18:06:31.690Z,7.16
2018-01-08T18:08:58.140Z,7.14
2018-01-08T18:11:24.526Z,7.15
2018-01-08T18:13:50.930Z,7.18
2018-01-08T18:16:17.332Z,7.08
2018-01-08T18:18:43.676Z,7.01
2018-01-08T18:21:10.068Z,6.96
2018-01-08T18:23:36.529Z,6.95
2018-01-08T18:26:02.892Z,6.90
2018-01-08T18:28:36.296Z,6.88
2018-01-08T18:31:02.712Z,6.85
2018-01-08T18:33:29.092Z,6.85
2018-01-08T18:35:55.576Z,6.89
2018-01-08T18:38:21.953Z,6.95
2018-01-08T18:40:48.384Z,6.98
2018-01-08T18:43:14.800Z,7.05
2018-01-08T18:45:41.232Z,7.02
2018-01-08T18:48:07.636Z,7.13
2018-01-08T18:50:34.059Z,7.10
2018-01-08T18:53:00.539Z,7.17
2018-01-08T18:55:26.932Z,7.18
2018-01-08T18:57:53.375Z,7.22
2018-01-08T19:00:19.864Z,7.21
2018-01-08T19:02:46.292Z,7.12
2018-01-08T19:05:12.680Z,7.17
2018-01-08T19:07:39.095Z,7.06
2018-01-08T19:10:06.508Z,7.05
2018-01-08T19:12:32.971Z,7.08
2018-01-08T19:14:59.357Z,7.04
2018-01-08T19:17:25.756Z,6.99
2018-01-08T19:19:52.236Z,6.96
2018-01-08T19:22:18.774Z,6.97
2018-01-08T19:24:45.199Z,7.05
2018-01-08T19:27:11.684Z,7.06
2018-01-08T19:29:38.151Z,7.05
2018-01-08T19:32:04.552Z,7.00
2018-01-08T19:34:30.991Z,6.98
2018-01-08T19:36:57.400Z,6.86
2018-01-08T19:39:23.853Z,6.99
2018-01-08T19:41:50.266Z,6.93
2018-01-08T19:44:16.675Z,6.93
2018-01-08T19:46:43.156Z,6.89
2018-01-08T19:49:09.566Z,6.75
2018-01-08T19:51:35.935Z,6.80
2018-01-08T19:54:02.348Z,6.84
2018-01-08T19:56:28.735Z,6.72
2018-01-08T19:58:55.152Z,6.72
2018-01-08T20:01:21.559Z,6.84
2018-01-08T20:03:48.041Z,6.62
2018-01-08T20:06:14.496Z,6.67
2018-01-08T20:08:40.887Z,6.69
2018-01-08T20:11:07.287Z,6.68
2018-01-08T20:13:33.751Z,6.74
2018-01-08T20:16:00.156Z,6.80
2018-01-08T20:18:26.580Z,6.87
2018-01-08T20:20:53.048Z,6.81
2018-01-08T20:23:19.436Z,6.82
2018-01-08T20:25:45.936Z,6.78
2018-01-08T20:28:12.368Z,6.78
2018-01-08T20:30:38.743Z,6.62
2018-01-08T20:33:05.166Z,6.61
2018-01-08T20:35:31.547Z,6.51
2018-01-08T20:37:58.012Z,6.56
2018-01-08T20:40:24.517Z,6.62
2018-01-08T20:42:50.945Z,6.67
2018-01-08T20:45:17.327Z,6.60
2018-01-08T20:47:43.767Z,6.67
2018-01-08T20:50:10.191Z,6.70
2018-01-08T20:52:36.644Z,6.80
2018-01-08T20:55:03.123Z,6.78
2018-01-08T20:57:29.525Z,6.83
2018-01-08T20:59:55.887Z,6.87
2018-01-08T21:02:22.324Z,6.86
2018-01-08T21:04:48.700Z,6.84
2018-01-08T21:07:15.052Z,6.63
2018-01-08T21:09:41.455Z,6.72
2018-01-08T21:12:07.843Z,6.71
2018-01-08T21:14:34.292Z,6.71
2018-01-08T21:17:00.724Z,6.78
2018-01-08T21:19:27.144Z,6.73
2018-01-08T21:21:53.520Z,6.70
2018-01-08T21:24:19.930Z,6.59
2018-01-08T21:26:46.332Z,6.53
2018-01-08T21:29:12.700Z,6.56
2018-01-08T21:31:39.168Z,6.57
2018-01-08T21:34:05.531Z,6.51
2018-01-08T21:36:31.927Z,6.45
2018-01-08T21:38:58.348Z,6.36
2018-01-08T21:41:24.699Z,6.30
2018-01-08T21:43:51.059Z,6.22
2018-01-08T21:46:17.496Z,6.13
2018-01-08T21:48:43.872Z,6.09
2018-01-08T21:51:10.309Z,6.05
2018-01-08T21:53:36.639Z,6.06
2018-01-08T21:56:02.987Z,5.99
2018-01-08T21:58:29.364Z,5.81
2018-01-08T22:00:55.763Z,5.83
2018-01-08T22:03:22.195Z,5.73
2018-01-08T22:05:48.564Z,5.77
2018-01-08T22:08:15.059Z,5.85
2018-01-08T22:10:41.468Z,5.81
2018-01-08T22:13:08.027Z,5.78
2018-01-08T22:15:34.508Z,5.71
2018-01-08T22:18:01.014Z,5.74
2018-01-08T22:20:27.355Z,5.77
2018-01-08T22:22:54.583Z,5.70
2018-01-08T22:25:20.990Z,5.72
2018-01-08T22:27:47.352Z,5.59
2018-01-08T22:30:13.782Z,5.58
2018-01-08T22:32:40.187Z,5.72
2018-01-08T22:35:06.616Z,5.55
2018-01-08T22:37:33.116Z,5.46
2018-01-08T22:39:59.458Z,5.57
2018-01-08T22:42:25.892Z,5.50
2018-01-08T22:44:52.295Z,5.48
2018-01-08T22:47:18.668Z,5.54
2018-01-08T22:49:45.016Z,5.49
2018-01-08T22:52:11.467Z,5.45
2018-01-08T22:54:37.860Z,5.52
2018-01-08T22:57:04.271Z,5.48
2018-01-08T22:59:30.672Z,5.31
2018-01-08T23:01:57.056Z,5.40
2018-01-08T23:04:23.487Z,5.39
2018-01-08T23:06:49.879Z,5.22
2018-01-08T23:09:16.291Z,5.20
2018-01-08T23:11:42.695Z,5.19
2018-01-08T23:14:09.092Z,5.18
2018-01-08T23:16:35.440Z,5.22
2018-01-08T23:19:01.880Z,5.18
2018-01-08T23:21:28.271Z,5.15
2018-01-08T23:23:54.695Z,5.01
2018-01-08T23:26:21.099Z,5.07
2018-01-08T23:28:47.508Z,5.07
2018-01-08T23:31:13.868Z,4.96
2018-01-08T23:33:40.227Z,4.98
2018-01-08T23:36:06.664Z,4.96
2018-01-08T23:38:33.066Z,5.10
2018-01-08T23:40:59.447Z,5.07
2018-01-08T23:43:25.847Z,5.10
2018-01-08T23:45:52.224Z,4.90
2018-01-08T23:48:18.644Z,4.93
2018-01-08T23:50:45.051Z,4.80
2018-01-08T23:53:11.415Z,5.03
2018-01-08T23:55:37.894Z,5.11
2018-01-08T23:58:04.255Z,5.07
